Time;durP1;ratioP1;P1;durP2;ratioP2;P2;SDS_P1;SDS_P2;PMS_P1;PMS_P2;Temp;Humidity;BMP_temperature;BMP_pressure;BME280_temperature;BME280_humidity;BME280_pressure;Samples;Min_cycle;Max_cycle;Signal;HPM_P1;HPM_P2
2023/07/19 00:00:09;;;;;;;0.32;0.32;;;;;;;17.98;98.06;96656.91;29395;223;63004;-55
2023/07/19 00:00:41;;;;;;;0.30;0.30;;;;;;;18.00;98.24;96653.81;29395;197;63009;-55
2023/07/19 00:01:12;;;;;;;0.30;0.30;;;;;;;18.00;97.72;96660.09;29394;214;64009;-54
2023/07/19 00:01:46;;;;;;;0.30;0.30;;;;;;;18.00;97.89;96664.78;29395;254;63009;-54
2023/07/19 00:02:18;;;;;;;0.30;0.30;;;;;;;18.00;97.70;96662.84;29395;218;63004;-56
2023/07/19 00:02:52;;;;;;;0.30;0.30;;;;;;;17.99;97.52;96658.50;29394;202;64013;-55
2023/07/19 00:03:25;;;;;;;0.30;0.30;;;;;;;18.00;97.83;96662.03;29395;197;63008;-54
2023/07/19 00:03:56;;;;;;;0.30;0.30;;;;;;;17.99;97.75;96658.50;29395;202;63009;-59
2023/07/19 00:04:28;;;;;;;0.30;0.30;;;;;;;18.00;97.79;96659.28;29395;226;63005;-59
2023/07/19 00:04:59;;;;;;;0.30;0.30;;;;;;;18.00;97.91;96662.84;29395;244;63009;-59
2023/07/19 00:05:31;;;;;;;0.30;0.30;;;;;;;18.01;98.10;96660.91;29395;205;63005;-54
2023/07/19 00:06:03;;;;;;;0.30;0.30;;;;;;;18.01;97.94;96653.47;29395;214;63009;-54
2023/07/19 00:06:35;;;;;;;0.30;0.30;;;;;;;18.01;97.90;96647.97;29395;259;63004;-54
2023/07/19 00:07:06;;;;;;;0.30;0.30;;;;;;;18.01;97.80;96658.16;29395;213;63009;-54
2023/07/19 00:07:37;;;;;;;0.30;0.30;;;;;;;18.00;97.64;96649.13;29395;282;63004;-54
2023/07/19 00:08:09;;;;;;;0.30;0.30;;;;;;;18.01;97.32;96656.22;29394;287;64013;-54
2023/07/19 00:08:40;;;;;;;0.30;0.30;;;;;;;18.01;97.71;96658.94;29395;398;63004;-54
2023/07/19 00:09:12;;;;;;;0.30;0.30;;;;;;;18.01;97.37;96645.22;29395;196;63019;-54
2023/07/19 00:09:43;;;;;;;0.30;0.30;;;;;;;18.01;97.28;96650.72;29395;286;63005;-55
2023/07/19 00:10:17;;;;;;;0.30;0.30;;;;;;;18.02;97.34;96655.03;29395;279;63008;-54
2023/07/19 00:10:48;;;;;;;0.30;0.30;;;;;;;18.03;97.52;96653.88;29395;294;63017;-59
2023/07/19 00:11:20;;;;;;;0.40;0.40;;;;;;;18.03;97.76;96653.09;29395;259;63023;-54
2023/07/19 00:11:51;;;;;;;0.32;0.32;;;;;;;18.04;97.57;96655.47;29395;198;63005;-54
2023/07/19 00:12:22;;;;;;;0.40;0.40;;;;;;;18.03;97.58;96655.84;29395;231;63018;-54
2023/07/19 00:12:54;;;;;;;0.30;0.30;;;;;;;18.00;97.61;96643.62;29395;260;63005;-57
2023/07/19 00:13:25;;;;;;;0.30;0.30;;;;;;;18.01;97.39;96650.72;29394;240;64013;-58
2023/07/19 00:13:57;;;;;;;0.30;0.30;;;;;;;18.02;97.21;96656.97;29395;235;63004;-54
2023/07/19 00:14:29;;;;;;;0.30;0.30;;;;;;;18.01;97.46;96649.91;29395;275;63009;-54
2023/07/19 00:15:00;;;;;;;0.30;0.30;;;;;;;18.00;97.25;96651.84;29395;256;63004;-54
2023/07/19 00:15:33;;;;;;;0.30;0.30;;;;;;;18.00;97.22;96651.84;29394;332;64013;-59
2023/07/19 00:16:05;;;;;;;0.30;0.30;;;;;;;17.99;97.36;96647.50;29395;292;63004;-55
2023/07/19 00:16:36;;;;;;;0.30;0.30;;;;;;;17.99;97.31;96647.50;29395;237;63008;-55
2023/07/19 00:17:07;;;;;;;0.40;0.40;;;;;;;17.99;97.04;96650.25;29395;250;63004;-54
2023/07/19 00:17:42;;;;;;;0.30;0.30;;;;;;;18.00;97.21;96654.59;29395;224;63009;-54
2023/07/19 00:18:13;;;;;;;0.40;0.40;;;;;;;18.00;97.29;96657.34;29395;282;63005;-55
2023/07/19 00:18:44;;;;;;;0.30;0.30;;;;;;;18.01;97.58;96658.94;29395;282;63009;-53
2023/07/19 00:19:16;;;;;;;0.30;0.30;;;;;;;18.01;97.61;96647.97;29394;239;64009;-55
2023/07/19 00:19:47;;;;;;;0.40;0.40;;;;;;;18.01;97.36;96650.72;29395;236;63009;-60
2023/07/19 00:20:19;;;;;;;0.30;0.30;;;;;;;18.03;97.70;96648.41;29395;198;63005;-54
2023/07/19 00:20:50;;;;;;;0.30;0.30;;;;;;;18.04;98.01;96657.44;29395;284;63009;-59
2023/07/19 00:21:22;;;;;;;0.30;0.30;;;;;;;18.04;99.07;96644.50;29395;302;63005;-54
2023/07/19 00:21:53;;;;;;;0.40;0.40;;;;;;;18.03;98.71;96648.41;29395;235;63009;-53
2023/07/19 00:22:24;;;;;;;0.30;0.30;;;;;;;18.03;98.16;96645.66;29395;234;63000;-53
2023/07/19 00:22:55;;;;;;;0.30;0.30;;;;;;;18.03;98.15;96642.91;29395;235;63009;-54
2023/07/19 00:23:28;;;;;;;0.30;0.30;;;;;;;18.04;98.13;96650.00;29395;232;63004;-55
2023/07/19 00:23:59;;;;;;;0.30;0.30;;;;;;;18.05;97.74;96646.09;29394;198;64013;-59
2023/07/19 00:24:31;;;;;;;0.30;0.30;;;;;;;18.06;98.07;96642.22;29395;229;63004;-55
2023/07/19 00:25:03;;;;;;;0.30;0.30;;;;;;;18.06;97.79;96647.69;29395;225;63009;-58
2023/07/19 00:25:34;;;;;;;0.30;0.30;;;;;;;18.08;98.02;96648.16;29395;341;63005;-55
2023/07/19 00:26:05;;;;;;;0.30;0.30;;;;;;;18.09;97.43;96641.53;29395;214;63009;-55
2023/07/19 00:26:37;;;;;;;0.30;0.30;;;;;;;18.11;98.54;96637.63;29395;233;63005;-54
2023/07/19 00:27:08;;;;;;;0.37;0.37;;;;;;;18.10;98.53;96647.81;29395;245;63009;-59
2023/07/19 00:27:39;;;;;;;0.30;0.30;;;;;;;18.08;98.88;96645.41;29395;284;63005;-53
2023/07/19 00:28:11;;;;;;;0.30;0.30;;;;;;;18.08;98.76;96639.91;29395;277;63009;-59
2023/07/19 00:28:44;;;;;;;0.30;0.30;;;;;;;18.08;98.40;96650.91;29394;288;64009;-53
2023/07/19 00:29:15;;;;;;;0.30;0.30;;;;;;;18.08;98.50;96644.59;29395;217;63009;-54
2023/07/19 00:29:46;;;;;;;0.30;0.30;;;;;;;18.07;98.34;96643.00;29395;264;63004;-53
2023/07/19 00:30:18;;;;;;;0.30;0.30;;;;;;;18.06;98.44;96641.41;29395;257;63009;-60
2023/07/19 00:30:58;;;;;;;0.40;0.40;;;;;;;18.07;98.82;96643.81;29395;212;63004;-59
2023/07/19 00:31:29;;;;;;;0.40;0.40;;;;;;;18.05;98.63;96635.13;29394;212;64013;-54
2023/07/19 00:32:00;;;;;;;0.30;0.30;;;;;;;18.05;98.40;96637.06;29395;198;63004;-58
2023/07/19 00:32:31;;;;;;;0.30;0.30;;;;;;;18.06;98.11;96642.22;29395;278;63019;-54
2023/07/19 00:33:03;;;;;;;0.30;0.30;;;;;;;18.04;98.13;96639.00;29395;207;63005;-56
2023/07/19 00:33:34;;;;;;;0.30;0.30;;;;;;;18.05;97.80;96640.59;29395;213;63009;-55
2023/07/19 00:34:06;;;;;;;0.30;0.30;;;;;;;18.05;97.83;96629.63;29395;197;63005;-59
2023/07/19 00:34:37;;;;;;;0.30;0.30;;;;;;;18.06;97.96;96641.41;29395;275;63019;-54
2023/07/19 00:35:09;;;;;;;0.30;0.30;;;;;;;18.06;97.82;96630.44;29395;233;63005;-55
2023/07/19 00:35:43;;;;;;;0.30;0.30;;;;;;;18.07;97.92;96627.34;29395;228;63009;-54
2023/07/19 00:36:14;;;;;;;0.30;0.30;;;;;;;18.08;98.05;96628.12;29394;224;64009;-54
2023/07/19 00:36:46;;;;;;;0.30;0.30;;;;;;;18.07;97.96;96626.53;29395;197;63009;-55
2023/07/19 00:37:17;;;;;;;0.30;0.30;;;;;;;18.07;97.95;96629.28;29395;196;63004;-55
2023/07/19 00:37:48;;;;;;;0.30;0.30;;;;;;;18.06;97.63;96641.41;29395;197;63009;-54
2023/07/19 00:38:21;;;;;;;0.30;0.30;;;;;;;18.04;97.69;96639.00;29395;228;63004;-54
2023/07/19 00:38:52;;;;;;;0.30;0.30;;;;;;;18.03;98.01;96644.84;29394;233;64013;-55
2023/07/19 00:39:24;;;;;;;0.30;0.30;;;;;;;18.02;97.86;96640.50;29395;202;63004;-54
2023/07/19 00:39:55;;;;;;;0.40;0.40;;;;;;;18.00;97.59;96643.62;29394;204;64013;-54
2023/07/19 00:40:32;;;;;;;0.40;0.40;;;;;;;18.00;97.88;96638.13;29395;211;63005;-54
2023/07/19 00:41:03;;;;;;;0.37;0.37;;;;;;;18.00;99.41;96643.62;29395;192;63017;-54
2023/07/19 00:41:35;;;;;;;0.30;0.30;;;;;;;17.99;99.07;96652.22;29394;261;64009;-55
2023/07/19 00:42:06;;;;;;;0.30;0.30;;;;;;;17.98;99.22;96645.91;29395;200;63009;-54
2023/07/19 00:42:40;;;;;;;0.40;0.40;;;;;;;17.97;99.45;96647.06;29394;207;64009;-55
2023/07/19 00:43:14;;;;;;;0.30;0.30;;;;;;;17.96;99.96;96645.47;29394;239;64013;-54
2023/07/19 00:43:49;;;;;;;0.30;0.30;;;;;;;17.95;100.00;96646.59;29395;200;63014;-55
2023/07/19 00:44:21;;;;;;;0.68;0.68;;;;;;;17.95;100.00;96645.81;29395;282;63009;-55
2023/07/19 00:44:53;;;;;;;0.35;0.35;;;;;;;17.94;100.00;96650.50;29395;260;63004;-55
2023/07/19 00:45:26;;;;;;;0.40;0.40;;;;;;;17.92;100.00;96647.28;29395;219;63009;-54
2023/07/19 00:45:58;;;;;;;0.40;0.40;;;;;;;17.92;100.00;96647.28;29395;222;63004;-54
2023/07/19 00:46:29;;;;;;;0.40;0.40;;;;;;;17.91;100.00;96640.19;29395;219;63016;-59
2023/07/19 00:47:02;;;;;;;0.30;0.30;;;;;;;17.91;100.00;96640.19;29395;202;63004;-54
2023/07/19 00:47:34;;;;;;;0.30;0.30;;;;;;;17.91;100.00;96637.47;29395;226;63009;-54
2023/07/19 00:48:06;;;;;;;0.30;0.30;;;;;;;17.92;100.00;96641.81;29395;217;63005;-56
2023/07/19 00:48:37;;;;;;;0.30;0.30;;;;;;;17.92;100.00;96636.31;29394;197;64014;-54
2023/07/19 00:49:10;;;;;;;0.50;0.50;;;;;;;17.93;100.00;96634.38;29395;224;63005;-54
2023/07/19 00:49:44;;;;;;;0.30;0.30;;;;;;;17.92;100.00;96630.81;29394;199;64013;-55
2023/07/19 00:50:17;;;;;;;0.40;0.40;;;;;;;17.92;99.93;96630.03;29395;203;63008;-54
2023/07/19 00:50:50;;;;;;;0.30;0.30;;;;;;;17.92;100.00;96641.81;29395;197;63009;-54
2023/07/19 00:51:25;;;;;;;0.37;0.37;;;;;;;17.91;99.77;96640.19;29395;297;63005;-54
2023/07/19 00:52:01;;;;;;;0.30;0.30;;;;;;;17.91;100.00;96634.72;29395;229;63009;-54
2023/07/19 00:52:32;;;;;;;0.40;0.40;;;;;;;17.91;99.62;96634.72;29395;288;63010;-54
2023/07/19 00:53:05;;;;;;;0.40;0.40;;;;;;;17.91;100.00;96640.19;29394;198;64013;-59
2023/07/19 00:53:38;;;;;;;0.30;0.30;;;;;;;17.91;100.00;96640.19;29395;212;63007;-55
2023/07/19 00:54:10;;;;;;;0.35;0.35;;;;;;;17.88;99.95;96635.41;29395;251;63009;-55
2023/07/19 00:54:47;;;;;;;0.30;0.30;;;;;;;17.87;99.80;96644.78;29395;215;63004;-54
2023/07/19 00:55:20;;;;;;;0.40;0.40;;;;;;;17.86;100.00;96643.19;29395;243;63009;-54
2023/07/19 00:55:53;;;;;;;0.37;0.37;;;;;;;17.86;100.00;96637.69;29395;212;63005;-54
2023/07/19 00:56:25;;;;;;;0.40;0.40;;;;;;;17.86;99.64;96645.94;29395;230;63009;-55
2023/07/19 00:56:58;;;;;;;0.40;0.40;;;;;;;17.85;100.00;96647.06;29395;232;63015;-54
2023/07/19 00:57:29;;;;;;;0.40;0.40;;;;;;;17.86;100.00;96648.66;29395;218;63009;-54
2023/07/19 00:58:02;;;;;;;0.37;0.37;;;;;;;17.85;100.00;96646.28;29394;222;64009;-54
2023/07/19 00:58:36;;;;;;;0.30;0.30;;;;;;;17.85;100.00;96647.06;29395;220;63014;-54
2023/07/19 00:59:08;;;;;;;0.40;0.40;;;;;;;17.85;99.87;96647.06;29395;229;63005;-60
2023/07/19 00:59:41;;;;;;;0.30;0.30;;;;;;;17.86;99.98;96645.94;29395;240;63024;-55
2023/07/19 01:00:13;;;;;;;0.30;0.30;;;;;;;17.88;99.92;96651.88;29395;225;63004;-54
2023/07/19 01:00:46;;;;;;;0.30;0.30;;;;;;;17.87;99.56;96644.78;29395;253;63009;-55
2023/07/19 01:01:19;;;;;;;0.30;0.30;;;;;;;17.86;99.27;96645.13;29395;244;63015;-59
2023/07/19 01:01:53;;;;;;;0.40;0.40;;;;;;;17.85;98.89;96643.53;29394;292;64013;-54
2023/07/19 01:02:24;;;;;;;0.35;0.35;;;;;;;17.86;99.23;96647.87;29395;210;63004;-54
2023/07/19 01:02:56;;;;;;;0.40;0.40;;;;;;;17.86;99.03;96642.38;29395;218;63009;-54
2023/07/19 01:03:27;;;;;;;0.30;0.30;;;;;;;17.86;99.39;96648.66;29394;208;64009;-55
2023/07/19 01:03:59;;;;;;;0.40;0.40;;;;;;;17.87;99.43;96650.28;29394;202;64014;-54
2023/07/19 01:04:30;;;;;;;0.40;0.40;;;;;;;17.88;99.54;96640.09;29395;241;63005;-54
2023/07/19 01:05:01;;;;;;;0.30;0.30;;;;;;;17.89;99.25;96645.25;29395;246;63009;-59
2023/07/19 01:05:33;;;;;;;0.30;0.30;;;;;;;17.90;99.40;96648.78;29395;220;63014;-54
2023/07/19 01:06:05;;;;;;;0.40;0.40;;;;;;;17.90;99.27;96644.09;29395;203;63009;-55
2023/07/19 01:06:37;;;;;;;0.30;0.30;;;;;;;17.91;99.09;96639.41;29394;215;64009;-54
2023/07/19 01:07:09;;;;;;;0.40;0.40;;;;;;;17.91;99.26;96645.69;29394;204;64013;-60
2023/07/19 01:07:40;;;;;;;0.40;0.40;;;;;;;17.91;98.94;96636.66;29395;296;63004;-54
2023/07/19 01:08:12;;;;;;;0.30;0.30;;;;;;;17.90;99.11;96649.59;29395;223;63009;-55
2023/07/19 01:08:43;;;;;;;0.30;0.30;;;;;;;17.89;99.56;96645.25;29395;274;63004;-55
2023/07/19 01:09:14;;;;;;;0.30;0.30;;;;;;;17.87;100.00;96635.75;29395;234;63023;-54
2023/07/19 01:09:46;;;;;;;0.37;0.37;;;;;;;17.87;99.85;96641.25;29395;306;63004;-54
2023/07/19 01:10:18;;;;;;;0.30;0.30;;;;;;;17.85;99.36;96643.53;29395;232;63009;-54
2023/07/19 01:10:49;;;;;;;0.30;0.30;;;;;;;17.84;99.77;96645.47;29395;291;63005;-55
2023/07/19 01:11:20;;;;;;;0.30;0.30;;;;;;;17.83;99.82;96637.59;29395;238;63013;-54
2023/07/19 01:11:52;;;;;;;0.40;0.40;;;;;;;17.82;99.46;96647.75;29395;199;63005;-54
2023/07/19 01:12:24;;;;;;;0.30;0.30;;;;;;;17.80;99.94;96650.03;29394;276;64013;-54
2023/07/19 01:13:11;;;;;;;0.30;0.30;;;;;;;17.79;100.00;96653.13;29395;222;63005;-54
2023/07/19 01:13:55;;;;;;;0.40;0.40;;;;;;;17.75;100.00;96648.34;29395;210;63009;-59
2023/07/19 01:14:26;;;;;;;0.40;0.40;;;;;;;17.75;100.00;96650.28;29395;258;63009;-55
2023/07/19 01:14:57;;;;;;;0.30;0.30;;;;;;;17.73;100.00;96649.81;29395;254;63009;-59
2023/07/19 01:15:29;;;;;;;0.40;0.40;;;;;;;17.74;100.00;96652.22;29395;235;63004;-54
2023/07/19 01:16:00;;;;;;;0.40;0.40;;;;;;;17.72;100.00;96648.22;29395;231;63008;-56
2023/07/19 01:16:31;;;;;;;0.40;0.40;;;;;;;17.72;100.00;96653.72;29395;221;63004;-54
2023/07/19 01:17:03;;;;;;;0.30;0.30;;;;;;;17.71;100.00;96654.84;29395;300;63014;-55
2023/07/19 01:17:38;;;;;;;0.30;0.30;;;;;;;17.71;99.90;96652.91;29394;250;64019;-59
2023/07/19 01:18:09;;;;;;;0.40;0.40;;;;;;;17.70;99.98;96654.06;29395;273;63009;-54
2023/07/19 01:18:40;;;;;;;0.30;0.30;;;;;;;17.70;99.82;96658.75;29395;220;63007;-55
2023/07/19 01:19:16;;;;;;;0.30;0.30;;;;;;;17.69;100.00;96649.72;29395;352;63009;-59
2023/07/19 01:19:47;;;;;;;0.30;0.30;;;;;;;17.68;100.00;96652.78;29395;261;63005;-55
2023/07/19 01:20:18;;;;;;;0.30;0.30;;;;;;;17.68;100.00;96656.34;29395;196;63005;-59
2023/07/19 01:20:50;;;;;;;0.30;0.30;;;;;;;17.69;100.00;96654.41;29395;231;63005;-54
2023/07/19 01:21:22;;;;;;;0.30;0.30;;;;;;;17.67;100.00;96656.72;29394;220;64013;-55
2023/07/19 01:21:56;;;;;;;0.30;0.30;;;;;;;17.68;100.00;96658.28;29394;262;64009;-55
2023/07/19 01:22:32;;;;;;;0.30;0.30;;;;;;;17.67;100.00;96649.25;29395;228;63024;-54
2023/07/19 01:23:04;;;;;;;0.32;0.32;;;;;;;17.70;100.00;96645.03;29395;197;63004;-55
2023/07/19 01:23:35;;;;;;;0.30;0.30;;;;;;;17.71;100.00;96646.63;29395;196;63008;-59
2023/07/19 01:24:07;;;;;;;0.30;0.30;;;;;;;17.71;100.00;96650.16;29395;196;63004;-55
2023/07/19 01:24:41;;;;;;;0.40;0.40;;;;;;;17.71;99.96;96652.09;29395;249;63009;-54
2023/07/19 01:25:12;;;;;;;0.30;0.30;;;;;;;17.69;99.79;96644.22;29395;216;63005;-54
2023/07/19 01:25:44;;;;;;;0.40;0.40;;;;;;;17.71;99.91;96654.84;29394;237;64014;-55
2023/07/19 01:26:15;;;;;;;0.30;0.30;;;;;;;17.72;100.00;96648.22;29395;233;63005;-54
2023/07/19 01:26:47;;;;;;;0.30;0.30;;;;;;;17.74;100.00;96648.69;29395;206;63009;-55
2023/07/19 01:27:18;;;;;;;0.30;0.30;;;;;;;17.75;100.00;96647.53;29395;306;63005;-54
2023/07/19 01:27:51;;;;;;;0.35;0.35;;;;;;;17.74;99.71;96646.72;29394;215;64013;-54
2023/07/19 01:28:22;;;;;;;0.32;0.32;;;;;;;17.76;99.86;96651.88;29395;236;63008;-55
2023/07/19 01:28:58;;;;;;;0.30;0.30;;;;;;;17.77;99.70;96648.00;29395;290;63009;-53
2023/07/19 01:29:30;;;;;;;0.30;0.30;;;;;;;17.78;99.06;96649.59;29395;288;63004;-53
2023/07/19 01:30:01;;;;;;;0.40;0.40;;;;;;;17.79;98.94;96637.47;29395;340;63013;-53
2023/07/19 01:30:35;;;;;;;0.40;0.40;;;;;;;17.81;98.78;96646.16;29395;231;63004;-54
2023/07/19 01:31:07;;;;;;;0.40;0.40;;;;;;;17.81;98.11;96645.34;29395;254;63008;-54
2023/07/19 01:31:38;;;;;;;0.40;0.40;;;;;;;17.82;97.75;96631.28;29395;211;63004;-54
2023/07/19 01:32:10;;;;;;;0.30;0.30;;;;;;;17.84;97.61;96637.25;29395;197;63009;-55
2023/07/19 01:32:41;;;;;;;0.40;0.40;;;;;;;17.86;97.48;96636.91;29395;197;63005;-54
2023/07/19 01:33:13;;;;;;;0.30;0.30;;;;;;;17.86;96.76;96639.63;29394;202;64014;-54
2023/07/19 01:33:44;;;;;;;0.40;0.40;;;;;;;17.86;97.32;96632.19;29395;249;63005;-55
2023/07/19 01:34:15;;;;;;;0.30;0.30;;;;;;;17.87;96.42;96644.78;29394;247;64013;-55
2023/07/19 01:34:46;;;;;;;0.30;0.30;;;;;;;17.87;94.92;96643.97;29395;215;63005;-54
2023/07/19 01:35:18;;;;;;;0.30;0.30;;;;;;;17.86;94.11;96640.44;29395;216;63009;-55
2023/07/19 01:35:50;;;;;;;0.40;0.40;;;;;;;17.86;94.22;96645.94;29395;242;63005;-54
2023/07/19 01:36:21;;;;;;;0.35;0.35;;;;;;;17.87;94.25;96650.28;29395;230;63009;-54
2023/07/19 01:36:52;;;;;;;0.30;0.30;;;;;;;17.86;94.14;96640.44;29395;219;63004;-54
2023/07/19 01:37:24;;;;;;;0.30;0.30;;;;;;;17.86;94.13;96642.38;29395;230;63009;-55
2023/07/19 01:37:55;;;;;;;0.40;0.40;;;;;;;17.86;93.99;96643.19;29395;243;63004;-55
2023/07/19 01:38:28;;;;;;;0.30;0.30;;;;;;;17.85;93.76;96638.84;29395;222;63009;-54
2023/07/19 01:38:59;;;;;;;0.40;0.40;;;;;;;17.85;94.01;96647.06;29395;227;63004;-55
2023/07/19 01:39:31;;;;;;;0.30;0.30;;;;;;;17.84;93.92;96645.47;29394;241;64014;-54
2023/07/19 01:40:05;;;;;;;0.30;0.30;;;;;;;17.83;93.76;96643.88;29395;221;63005;-54
2023/07/19 01:40:36;;;;;;;0.40;0.40;;;;;;;17.83;94.04;96637.59;29395;264;63025;-60
2023/07/19 01:41:08;;;;;;;0.32;0.32;;;;;;;17.83;94.54;96638.38;29395;242;63005;-54
2023/07/19 01:41:39;;;;;;;0.30;0.30;;;;;;;17.85;94.35;96638.03;29395;222;63009;-55
2023/07/19 01:42:10;;;;;;;0.30;0.30;;;;;;;17.85;94.33;96638.84;29395;245;63005;-54
2023/07/19 01:42:42;;;;;;;0.30;0.30;;;;;;;17.84;93.02;96639.97;29394;273;64009;-54
2023/07/19 01:43:13;;;;;;;0.30;0.30;;;;;;;17.83;93.86;96638.38;29394;230;64009;-55
2023/07/19 01:43:44;;;;;;;0.40;0.40;;;;;;;17.85;93.76;96640.78;29395;204;63009;-54
2023/07/19 01:44:15;;;;;;;0.40;0.40;;;;;;;17.85;93.95;96635.28;29395;197;63004;-55
2023/07/19 01:44:47;;;;;;;0.40;0.40;;;;;;;17.86;95.12;96632.19;29395;230;63009;-54
2023/07/19 01:45:22;;;;;;;0.40;0.40;;;;;;;17.88;94.91;96634.59;29395;272;63004;-59
2023/07/19 01:45:53;;;;;;;0.30;0.30;;;;;;;17.88;93.86;96634.59;29394;221;64013;-54
2023/07/19 01:46:24;;;;;;;0.30;0.30;;;;;;;17.88;93.80;96640.91;29395;252;63004;-55
2023/07/19 01:46:55;;;;;;;0.30;0.30;;;;;;;17.88;93.80;96632.66;29395;292;63008;-55
2023/07/19 01:47:28;;;;;;;0.30;0.30;;;;;;;17.89;94.11;96637.00;29394;250;64009;-54
2023/07/19 01:47:59;;;;;;;0.30;0.30;;;;;;;17.91;93.49;96633.91;29395;198;63009;-55
2023/07/19 01:48:30;;;;;;;0.30;0.30;;;;;;;17.91;93.05;96633.91;29394;295;64009;-54
2023/07/19 01:49:02;;;;;;;0.40;0.40;;;;;;;17.91;91.99;96633.91;29394;220;64013;-55
2023/07/19 01:49:33;;;;;;;0.40;0.40;;;;;;;17.91;91.90;96629.22;29395;286;63005;-54
2023/07/19 01:50:05;;;;;;;0.40;0.40;;;;;;;17.91;92.07;96628.44;29395;203;63009;-58
2023/07/19 01:50:39;;;;;;;0.30;0.30;;;;;;;17.90;92.17;96627.62;29394;212;64009;-55
2023/07/19 01:51:11;;;;;;;0.32;0.32;;;;;;;17.91;92.64;96634.72;29395;221;63009;-54
2023/07/19 01:51:42;;;;;;;0.30;0.30;;;;;;;17.91;92.88;96629.22;29395;254;63010;-54
2023/07/19 01:52:13;;;;;;;0.40;0.40;;;;;;;17.92;92.59;96628.09;29395;210;63009;-55
2023/07/19 01:52:44;;;;;;;0.40;0.40;;;;;;;17.91;92.83;96634.72;29395;266;63004;-60
2023/07/19 01:53:16;;;;;;;0.30;0.30;;;;;;;17.91;92.71;96633.91;29395;236;63009;-55
2023/07/19 01:53:47;;;;;;;0.30;0.30;;;;;;;17.92;93.28;96635.50;29395;215;63004;-54
2023/07/19 01:54:21;;;;;;;0.40;0.40;;;;;;;17.92;93.23;96635.50;29395;246;63008;-61
2023/07/19 01:54:52;;;;;;;0.40;0.40;;;;;;;17.92;92.56;96641.81;29395;234;63005;-59
2023/07/19 01:55:24;;;;;;;0.40;0.40;;;;;;;17.89;91.39;96642.50;29394;211;64014;-54
2023/07/19 01:55:56;;;;;;;0.40;0.40;;;;;;;17.90;92.30;96638.59;29395;220;63005;-54
2023/07/19 01:56:27;;;;;;;0.40;0.40;;;;;;;17.90;92.37;96637.81;29395;262;63009;-55
2023/07/19 01:56:59;;;;;;;0.40;0.40;;;;;;;17.89;92.38;96639.75;29395;251;63012;-54
2023/07/19 01:57:30;;;;;;;0.40;0.40;;;;;;;17.89;92.66;96642.50;29395;235;63009;-54
2023/07/19 01:58:01;;;;;;;0.30;0.30;;;;;;;17.90;92.28;96643.28;29395;196;63005;-54
2023/07/19 01:58:32;;;;;;;0.30;0.30;;;;;;;17.90;91.79;96644.09;29395;448;63009;-55
2023/07/19 01:59:06;;;;;;;0.37;0.37;;;;;;;17.89;91.65;96637.00;29395;282;63004;-54
2023/07/19 01:59:38;;;;;;;0.40;0.40;;;;;;;17.91;91.78;96634.72;29395;196;63015;-54
2023/07/19 02:00:10;;;;;;;0.30;0.30;;;;;;;17.91;91.58;96634.72;29394;241;64009;-59
2023/07/19 02:00:42;;;;;;;0.35;0.35;;;;;;;17.90;91.06;96633.13;29394;249;64009;-54
2023/07/19 02:01:13;;;;;;;0.40;0.40;;;;;;;17.89;91.42;96637.00;29395;219;63004;-59
2023/07/19 02:01:44;;;;;;;0.40;0.40;;;;;;;17.89;91.79;96639.75;29395;245;63008;-54
2023/07/19 02:02:15;;;;;;;0.40;0.40;;;;;;;17.88;92.23;96640.91;29395;299;63005;-54
2023/07/19 02:02:46;;;;;;;0.40;0.40;;;;;;;17.88;91.52;96637.34;29395;252;63005;-54
2023/07/19 02:03:18;;;;;;;0.40;0.40;;;;;;;17.86;91.05;96640.44;29395;213;63005;-58
2023/07/19 02:03:50;;;;;;;0.35;0.35;;;;;;;17.85;91.02;96644.31;29395;214;63026;-54
2023/07/19 02:04:21;;;;;;;0.37;0.37;;;;;;;17.85;91.48;96651.75;29395;257;63005;-54
2023/07/19 02:04:53;;;;;;;0.40;0.40;;;;;;;17.85;91.50;96647.06;29394;207;64003;-59
2023/07/19 02:05:24;;;;;;;0.37;0.37;;;;;;;17.85;91.76;96649.81;29395;203;63005;-59
2023/07/19 02:05:59;;;;;;;0.40;0.40;;;;;;;17.86;91.64;96639.63;29395;210;63009;-54
2023/07/19 02:06:34;;;;;;;0.40;0.40;;;;;;;17.85;91.97;96647.06;29394;233;64009;-54
2023/07/19 02:07:05;;;;;;;0.30;0.30;;;;;;;17.85;91.50;96641.59;29395;231;63009;-54
2023/07/19 02:07:36;;;;;;;0.40;0.40;;;;;;;17.85;90.89;96640.78;29395;197;63004;-54
2023/07/19 02:08:08;;;;;;;0.40;0.40;;;;;;;17.84;90.65;96637.25;29394;202;64013;-54
2023/07/19 02:08:39;;;;;;;0.40;0.40;;;;;;;17.83;90.70;96638.38;29395;220;63004;-55
2023/07/19 02:09:11;;;;;;;0.30;0.30;;;;;;;17.83;90.67;96640.31;29395;213;63008;-54
2023/07/19 02:09:42;;;;;;;0.30;0.30;;;;;;;17.84;91.12;96641.94;29395;225;63005;-54
2023/07/19 02:10:13;;;;;;;0.30;0.30;;;;;;;17.83;91.04;96632.91;29395;215;63009;-54
2023/07/19 02:10:44;;;;;;;0.37;0.37;;;;;;;17.84;90.78;96637.25;29395;198;63005;-54
2023/07/19 02:11:16;;;;;;;0.40;0.40;;;;;;;17.84;90.40;96637.25;29395;247;63009;-54
2023/07/19 02:11:47;;;;;;;0.40;0.40;;;;;;;17.84;89.92;96633.69;29395;208;63005;-55
2023/07/19 02:12:18;;;;;;;0.40;0.40;;;;;;;17.85;89.24;96635.28;29395;219;63025;-59
2023/07/19 02:12:49;;;;;;;0.30;0.30;;;;;;;17.85;89.38;96638.84;29395;250;63005;-54
2023/07/19 02:13:21;;;;;;;0.40;0.40;;;;;;;17.84;89.21;96639.97;29394;216;64013;-59
2023/07/19 02:13:52;;;;;;;0.40;0.40;;;;;;;17.85;88.93;96641.59;29395;218;63004;-59
2023/07/19 02:14:23;;;;;;;0.40;0.40;;;;;;;17.86;88.75;96643.19;29395;243;63009;-55
2023/07/19 02:14:54;;;;;;;0.40;0.40;;;;;;;17.87;88.53;96646.72;29395;250;63004;-54
2023/07/19 02:15:26;;;;;;;0.40;0.40;;;;;;;17.87;88.65;96654.97;29395;248;63009;-54
2023/07/19 02:15:57;;;;;;;0.40;0.40;;;;;;;17.87;89.01;96650.28;29395;211;63004;-54
2023/07/19 02:16:28;;;;;;;0.40;0.40;;;;;;;17.88;88.89;96646.38;29395;295;63008;-59
2023/07/19 02:16:59;;;;;;;0.40;0.40;;;;;;;17.87;89.05;96650.28;29395;218;63004;-54
2023/07/19 02:17:31;;;;;;;0.40;0.40;;;;;;;17.88;88.64;96643.62;29395;205;63017;-55
2023/07/19 02:18:02;;;;;;;0.40;0.40;;;;;;;17.87;88.45;96650.28;29394;222;64009;-54
2023/07/19 02:18:33;;;;;;;0.37;0.37;;;;;;;17.88;88.19;96651.88;29395;211;63009;-54
2023/07/19 02:19:06;;;;;;;0.40;0.40;;;;;;;17.88;88.38;96649.13;29395;261;63005;-59
2023/07/19 02:19:37;;;;;;;0.40;0.40;;;;;;;17.88;88.36;96651.88;29395;238;63009;-55
2023/07/19 02:20:09;;;;;;;0.40;0.40;;;;;;;17.88;88.32;96651.88;29395;241;63005;-58
2023/07/19 02:20:45;;;;;;;0.30;0.30;;;;;;;17.88;88.71;96657.38;29395;276;63009;-54
2023/07/19 02:21:16;;;;;;;0.40;0.40;;;;;;;17.88;88.86;96654.63;29395;244;63004;-54
2023/07/19 02:21:47;;;;;;;0.40;0.40;;;;;;;17.89;88.81;96653.47;29395;280;63009;-53
2023/07/19 02:22:19;;;;;;;0.40;0.40;;;;;;;17.89;88.56;96653.47;29394;255;63998;-55
2023/07/19 02:22:51;;;;;;;0.40;0.40;;;;;;;17.89;88.71;96653.47;29395;221;63009;-54
2023/07/19 02:23:23;;;;;;;0.40;0.40;;;;;;;17.89;88.97;96652.66;29395;215;63004;-59
2023/07/19 02:23:54;;;;;;;0.37;0.37;;;;;;;17.89;88.79;96656.22;29395;196;63008;-54
2023/07/19 02:24:26;;;;;;;0.37;0.37;;;;;;;17.88;88.83;96656.56;29395;197;63005;-54
2023/07/19 02:24:57;;;;;;;0.40;0.40;;;;;;;17.86;88.76;96654.16;29395;197;63009;-60
2023/07/19 02:25:28;;;;;;;0.37;0.37;;;;;;;17.87;88.93;96654.97;29395;202;63005;-54
2023/07/19 02:26:00;;;;;;;0.40;0.40;;;;;;;17.87;89.08;96661.25;29395;199;63009;-54
2023/07/19 02:26:31;;;;;;;0.40;0.40;;;;;;;17.87;89.09;96663.19;29395;259;63005;-54
2023/07/19 02:27:03;;;;;;;0.40;0.40;;;;;;;17.87;89.25;96655.75;29394;224;64006;-55
2023/07/19 02:27:34;;;;;;;0.40;0.40;;;;;;;17.88;89.53;96659.31;29395;219;63005;-54
2023/07/19 02:28:06;;;;;;;0.40;0.40;;;;;;;17.88;89.62;96654.63;29395;249;63009;-54
2023/07/19 02:28:38;;;;;;;0.40;0.40;;;;;;;17.87;89.69;96654.97;29395;219;63004;-54
2023/07/19 02:29:09;;;;;;;0.40;0.40;;;;;;;17.88;89.40;96657.38;29395;248;63009;-54
2023/07/19 02:29:41;;;;;;;0.30;0.30;;;;;;;17.88;89.53;96651.06;29395;256;63004;-54
2023/07/19 02:30:13;;;;;;;0.40;0.40;;;;;;;17.87;89.85;96655.75;29395;218;63009;-54
2023/07/19 02:30:47;;;;;;;0.40;0.40;;;;;;;17.87;90.34;96655.75;29395;220;63004;-58
2023/07/19 02:31:18;;;;;;;0.40;0.40;;;;;;;17.87;90.53;96661.25;29395;245;63008;-55
2023/07/19 02:31:52;;;;;;;0.40;0.40;;;;;;;17.86;90.66;96654.16;29395;219;63005;-54
2023/07/19 02:32:24;;;;;;;0.40;0.40;;;;;;;17.85;90.25;96662.75;29394;293;64014;-55